Time,TemperatureF,DewpointF,PressureIn,WindDirection,WindDirectionDegrees,WindSpeedMPH,WindSpeedGustMPH,Humidity,HourlyPrecipIn,Conditions,Clouds,dailyrainin,SoftwareType,DateUTC
2013-01-31 00:03:00,38.0,35.0,29.56,SE,139,0.0,0.0,88,0.04,,,2.52,,2013-01-31 05:03:00,
2013-01-31 00:11:00,38.0,35.0,29.56,SE,139,0.0,0.0,88,0.04,,,2.52,,2013-01-31 05:11:00,
2013-01-31 00:22:00,38.0,35.0,29.57,SE,139,0.0,0.0,89,0.05,,,2.53,,2013-01-31 05:22:00,
2013-01-31 00:32:00,38.0,35.0,29.57,SE,139,0.0,0.0,89,0.05,,,2.53,,2013-01-31 05:32:00,
2013-01-31 00:42:00,37.0,34.0,29.57,SE,139,0.0,0.0,88,0.05,,,2.52,,2013-01-31 05:42:00,
2013-01-31 00:52:00,37.0,34.0,29.57,SE,139,0.0,0.0,88,0.05,,,2.52,,2013-01-31 05:52:00,
2013-01-31 01:01:00,37.0,34.0,29.57,SE,139,0.0,0.0,88,0.05,,,2.52,,2013-01-31 06:01:00,
2013-01-31 01:10:00,37.0,34.0,29.57,SE,139,0.0,0.0,88,0.05,,,2.52,,2013-01-31 06:10:00,
2013-01-31 09:03:00,28.0,21.0,29.90,SSE,153,5.0,5.0,75,0.00,,,2.08,,2013-01-31 14:03:00,
2013-01-31 09:11:00,28.0,21.0,29.90,SSE,153,5.0,5.0,75,0.00,,,2.08,,2013-01-31 14:11:00,
2013-01-31 09:22:00,29.0,21.0,29.91,WSW,250,3.0,9.0,71,0.00,,,2.03,,2013-01-31 14:22:00,
2013-01-31 09:32:00,29.0,21.0,29.91,SSE,161,10.0,10.0,72,0.00,,,1.99,,2013-01-31 14:32:00,
2013-01-31 09:42:00,29.0,21.0,29.91,SSE,161,10.0,10.0,72,0.00,,,1.99,,2013-01-31 14:42:00,
2013-01-31 09:52:00,29.0,21.0,29.92,South,171,3.0,10.0,71,0.00,,,1.95,,2013-01-31 14:52:00,
2013-01-31 10:03:00,29.0,20.0,29.93,West,269,2.0,5.0,70,0.00,,,1.93,,2013-01-31 15:03:00,
2013-01-31 10:12:00,29.0,20.0,29.93,West,269,2.0,5.0,70,0.00,,,1.93,,2013-01-31 15:12:00,
2013-01-31 10:23:00,30.0,22.0,29.93,SE,145,5.0,9.0,71,0.00,,,1.89,,2013-01-31 15:23:00,
2013-01-31 10:32:00,31.0,21.0,29.94,WSW,250,4.0,14.0,65,0.00,,,1.86,,2013-01-31 15:32:00,
2013-01-31 10:42:00,31.0,21.0,29.94,WSW,250,4.0,14.0,65,0.00,,,1.86,,2013-01-31 15:42:00,
2013-01-31 10:52:00,31.0,20.0,29.94,SW,223,8.0,8.0,64,0.00,,,1.85,,2013-01-31 15:52:00,
2013-01-31 11:03:00,33.0,24.0,29.94,NE,38,0.0,1.0,68,0.00,,,1.85,,2013-01-31 16:03:00,
2013-01-31 11:13:00,33.0,24.0,29.94,NE,38,0.0,1.0,68,0.00,,,1.85,,2013-01-31 16:13:00,
2013-01-31 11:22:00,34.0,25.0,29.94,ENE,76,0.0,3.0,68,0.00,,,1.81,,2013-01-31 16:22:00,
2013-01-31 11:33:00,36.0,26.0,29.94,NW,306,4.0,4.0,66,0.00,,,1.79,,2013-01-31 16:33:00,
2013-01-31 11:42:00,36.0,26.0,29.94,NW,306,4.0,4.0,66,0.00,,,1.79,,2013-01-31 16:42:00,
2013-01-31 11:52:00,37.0,29.0,29.93,ESE,105,0.0,2.0,72,0.00,,,1.78,,2013-01-31 16:52:00,
2013-01-31 12:03:00,37.0,28.0,29.95,East,88,1.0,5.0,70,0.00,,,1.76,,2013-01-31 17:03:00,
2013-01-31 12:12:00,37.0,28.0,29.95,East,88,1.0,5.0,70,0.00,,,1.76,,2013-01-31 17:12:00,
2013-01-31 12:23:00,35.0,24.0,29.96,SSE,147,3.0,4.0,64,0.01,,,1.74,,2013-01-31 17:23:00,
2013-01-31 12:32:00,36.0,28.0,29.96,South,185,3.0,4.0,72,0.01,,,1.73,,2013-01-31 17:32:00,
2013-01-31 12:43:00,36.0,28.0,29.96,South,185,3.0,4.0,72,0.01,,,1.73,,2013-01-31 17:43:00,
2013-01-31 12:53:00,37.0,27.0,29.97,SSW,196,2.0,3.0,66,0.02,,,1.72,,2013-01-31 17:53:00,
2013-01-31 13:03:00,38.0,26.0,29.97,South,173,0.0,0.0,62,0.03,,,1.72,,2013-01-31 18:03:00,
2013-01-31 13:12:00,37.0,25.0,29.98,North,9,2.0,4.0,61,0.02,,,1.70,,2013-01-31 18:12:00,
2013-01-31 13:22:00,37.0,25.0,29.98,North,9,2.0,4.0,61,0.02,,,1.70,,2013-01-31 18:22:00,
2013-01-31 13:32:00,38.0,28.0,29.98,WSW,250,0.0,6.0,67,0.03,,,1.66,,2013-01-31 18:32:00,
2013-01-31 13:43:00,38.0,28.0,29.98,WSW,250,0.0,6.0,67,0.03,,,1.66,,2013-01-31 18:43:00,
2013-01-31 13:52:00,37.0,21.0,29.97,ESE,120,2.0,9.0,53,0.02,,,1.23,,2013-01-31 18:52:00,
2013-01-31 14:02:00,37.0,23.0,29.97,SE,141,3.0,4.0,57,0.01,,,1.16,,2013-01-31 19:02:00,
2013-01-31 14:12:00,37.0,23.0,29.97,SE,141,3.0,4.0,57,0.01,,,1.16,,2013-01-31 19:12:00,
2013-01-31 14:22:00,39.0,24.0,29.99,WNW,285,2.0,10.0,54,0.01,,,1.07,,2013-01-31 19:22:00,
2013-01-31 14:33:00,38.0,25.0,29.99,South,182,2.0,8.0,58,0.01,,,0.99,,2013-01-31 19:33:00,
2013-01-31 14:42:00,38.0,25.0,29.99,South,182,2.0,8.0,58,0.01,,,0.99,,2013-01-31 19:42:00,
2013-01-31 14:52:00,39.0,25.0,29.99,SE,138,7.0,7.0,58,0.00,,,0.97,,2013-01-31 19:52:00,
2013-01-31 15:02:00,37.0,21.0,30.00,South,169,3.0,3.0,52,0.00,,,0.92,,2013-01-31 20:02:00,
2013-01-31 15:12:00,37.0,21.0,30.00,South,169,3.0,3.0,52,0.00,,,0.92,,2013-01-31 20:12:00,
2013-01-31 15:22:00,38.0,22.0,29.98,SSW,210,8.0,14.0,53,0.00,,,0.85,,2013-01-31 20:22:00,
2013-01-31 15:32:00,38.0,21.0,30.00,South,177,5.0,7.0,49,0.00,,,0.82,,2013-01-31 20:32:00,
2013-01-31 15:42:00,39.0,24.0,30.01,ESE,105,9.0,10.0,55,0.00,,,0.77,,2013-01-31 20:42:00,
2013-01-31 15:52:00,39.0,24.0,30.01,ESE,105,9.0,10.0,55,0.00,,,0.77,,2013-01-31 20:52:00,
2013-01-31 16:02:00,38.0,21.0,30.01,ESE,107,1.0,5.0,49,0.00,,,0.72,,2013-01-31 21:02:00,
2013-01-31 16:12:00,37.0,20.0,30.02,South,182,0.0,1.0,50,0.00,,,0.65,,2013-01-31 21:12:00,
2013-01-31 16:22:00,37.0,20.0,30.02,South,182,0.0,1.0,50,0.00,,,0.65,,2013-01-31 21:22:00,
2013-01-31 16:32:00,38.0,24.0,30.02,East,86,4.0,9.0,56,0.00,,,0.62,,2013-01-31 21:32:00,
2013-01-31 16:42:00,38.0,24.0,30.02,East,86,4.0,9.0,56,0.00,,,0.62,,2013-01-31 21:42:00,
2013-01-31 16:52:00,36.0,20.0,30.02,NE,53,0.0,3.0,51,0.00,,,0.54,,2013-01-31 21:52:00,
2013-01-31 17:03:00,36.0,20.0,30.03,SSE,148,2.0,3.0,52,0.00,,,0.50,,2013-01-31 22:03:00,
2013-01-31 17:11:00,36.0,20.0,30.03,SSE,148,2.0,3.0,52,0.00,,,0.50,,2013-01-31 22:11:00,
2013-01-31 17:22:00,35.0,19.0,30.02,West,261,1.0,2.0,52,0.00,,,0.48,,2013-01-31 22:22:00,
2013-01-31 17:33:00,35.0,22.0,30.02,ENE,59,2.0,2.0,58,0.00,,,0.46,,2013-01-31 22:33:00,
2013-01-31 17:42:00,35.0,22.0,30.02,ENE,59,2.0,2.0,58,0.00,,,0.46,,2013-01-31 22:42:00,
2013-01-31 17:52:00,35.0,21.0,30.02,ESE,109,0.0,0.0,56,0.00,,,0.42,,2013-01-31 22:52:00,
2013-01-31 18:03:00,34.0,20.0,30.03,East,101,0.0,0.0,57,0.00,,,0.41,,2013-01-31 23:03:00,
2013-01-31 18:12:00,34.0,20.0,30.03,East,101,0.0,0.0,57,0.00,,,0.41,,2013-01-31 23:12:00,
2013-01-31 18:22:00,34.0,21.0,30.03,East,101,0.0,0.0,59,0.00,,,0.35,,2013-01-31 23:22:00,
2013-01-31 18:32:00,33.0,22.0,30.03,East,101,0.0,0.0,64,0.00,,,0.32,,2013-01-31 23:32:00,
2013-01-31 18:42:00,33.0,22.0,30.03,East,101,0.0,0.0,64,0.00,,,0.32,,2013-01-31 23:42:00,
2013-01-31 18:52:00,33.0,21.0,30.04,East,101,0.0,0.0,62,0.00,,,0.27,,2013-01-31 23:52:00,
2013-01-31 19:01:00,33.0,22.0,30.04,East,101,0.0,0.0,63,0.00,,,0.25,,2013-02-01 00:01:00,
2013-01-31 19:11:00,33.0,22.0,30.04,East,101,0.0,0.0,63,0.00,,,0.25,,2013-02-01 00:11:00,
2013-01-31 19:22:00,32.0,20.0,30.04,East,101,0.0,0.0,62,0.00,,,0.21,,2013-02-01 00:22:00,
2013-01-31 19:32:00,32.0,20.0,30.05,East,101,0.0,0.0,61,0.00,,,0.19,,2013-02-01 00:32:00,
2013-01-31 19:42:00,32.0,20.0,30.05,East,101,0.0,0.0,61,0.00,,,0.19,,2013-02-01 00:42:00,
2013-01-31 19:52:00,32.0,20.0,30.06,East,101,0.0,0.0,61,0.00,,,0.16,,2013-02-01 00:52:00,
2013-01-31 20:01:00,32.0,20.0,30.06,East,101,0.0,0.0,60,0.00,,,0.16,,2013-02-01 01:01:00,
2013-01-31 20:11:00,32.0,21.0,30.06,East,101,0.0,0.0,64,0.00,,,0.16,,2013-02-01 01:11:00,
2013-01-31 20:21:00,32.0,21.0,30.06,East,101,0.0,0.0,64,0.00,,,0.16,,2013-02-01 01:21:00,
2013-01-31 20:32:00,32.0,22.0,30.06,East,101,0.0,0.0,65,0.00,,,0.16,,2013-02-01 01:32:00,
2013-01-31 20:42:00,32.0,22.0,30.06,East,101,0.0,0.0,65,0.00,,,0.16,,2013-02-01 01:42:00,
2013-01-31 20:52:00,32.0,22.0,30.07,East,101,0.0,0.0,65,0.00,,,0.14,,2013-02-01 01:52:00,
2013-01-31 21:02:00,33.0,22.0,30.07,East,101,0.0,0.0,63,0.00,,,0.14,,2013-02-01 02:02:00,
2013-01-31 21:11:00,33.0,22.0,30.07,East,101,0.0,0.0,63,0.00,,,0.14,,2013-02-01 02:11:00,
2013-01-31 21:21:00,34.0,22.0,30.08,East,101,0.0,0.0,60,0.00,,,0.11,,2013-02-01 02:21:00,
2013-01-31 21:32:00,34.0,22.0,30.09,East,101,0.0,0.0,60,0.00,,,0.11,,2013-02-01 02:32:00,
2013-01-31 21:42:00,34.0,22.0,30.09,East,101,0.0,0.0,60,0.00,,,0.11,,2013-02-01 02:42:00,
2013-01-31 21:52:00,34.0,21.0,30.09,East,101,0.0,0.0,59,0.00,,,0.11,,2013-02-01 02:52:00,
2013-01-31 22:02:00,34.0,21.0,30.09,East,101,0.0,0.0,59,0.00,,,0.11,,2013-02-01 03:02:00,
2013-01-31 22:12:00,34.0,21.0,30.09,East,101,0.0,0.0,59,0.00,,,0.11,,2013-02-01 03:12:00,
2013-01-31 22:21:00,34.0,21.0,30.08,East,101,0.0,0.0,59,0.00,,,0.11,,2013-02-01 03:21:00,
2013-01-31 22:33:00,35.0,22.0,30.08,East,101,0.0,0.0,59,0.00,,,0.11,,2013-02-01 03:33:00,
2013-01-31 22:42:00,35.0,22.0,30.08,East,101,0.0,0.0,59,0.00,,,0.11,,2013-02-01 03:42:00,
2013-01-31 22:52:00,35.0,22.0,30.06,East,101,0.0,0.0,59,0.00,,,0.11,,2013-02-01 03:52:00,
2013-01-31 23:02:00,35.0,23.0,30.07,East,101,0.0,0.0,61,0.00,,,0.10,,2013-02-01 04:02:00,
2013-01-31 23:11:00,35.0,23.0,30.08,East,101,0.0,0.0,60,0.00,,,0.10,,2013-02-01 04:11:00,
2013-01-31 23:21:00,35.0,23.0,30.08,East,101,0.0,0.0,60,0.00,,,0.10,,2013-02-01 04:21:00,
2013-01-31 23:32:00,35.0,23.0,30.09,East,101,0.0,0.0,61,0.00,,,0.10,,2013-02-01 04:32:00,
2013-01-31 23:42:00,35.0,23.0,30.09,East,101,0.0,0.0,61,0.00,,,0.10,,2013-02-01 04:42:00,
2013-01-31 23:51:00,35.0,23.0,30.08,East,101,0.0,0.0,60,0.00,,,0.08,,2013-02-01 04:51:00,